Time;durP1;ratioP1;P1;durP2;ratioP2;P2;SDS_P1;SDS_P2;PMS_P1;PMS_P2;Temp;Humidity;BMP_temperature;BMP_pressure;BME280_temperature;BME280_humidity;BME280_pressure;Samples;Min_cycle;Max_cycle;Signal;HPM_P1;HPM_P2
2022/12/05 00:01:41;;;;;;;28.60;14.73;;;1.40;99.90;;;;;;5090119;28;20028;-80
2022/12/05 00:04:10;;;;;;;29.03;15.13;;;1.40;99.90;;;;;;5089636;28;20028;-80
2022/12/05 00:06:37;;;;;;;28.20;15.43;;;1.40;99.90;;;;;;5090475;28;20028;-80
2022/12/05 00:09:05;;;;;;;27.23;14.73;;;1.40;99.90;;;;;;5114548;27;20476;-80
2022/12/05 00:11:33;;;;;;;31.10;15.27;;;1.40;99.90;;;;;;5090033;28;20052;-80
2022/12/05 00:13:59;;;;;;;26.67;14.57;;;1.40;99.90;;;;;;5116592;27;20525;-80
2022/12/05 00:16:27;;;;;;;28.03;15.20;;;1.40;99.90;;;;;;5090938;28;20055;-80
2022/12/05 00:18:53;;;;;;;27.77;14.77;;;1.40;99.90;;;;;;5089883;28;20083;-80
2022/12/05 00:21:22;;;;;;;28.67;15.03;;;1.40;99.90;;;;;;5090217;28;20020;-80
2022/12/05 00:23:48;;;;;;;30.47;15.80;;;1.40;99.90;;;;;;5090470;28;20661;-80
2022/12/05 00:26:14;;;;;;;29.87;16.07;;;1.40;99.90;;;;;;5088181;28;20024;-80
2022/12/05 00:28:40;;;;;;;29.47;16.00;;;1.40;99.90;;;;;;5089578;28;20028;-80
2022/12/05 00:31:19;;;;;;;27.70;15.93;;;1.40;99.90;;;;;;5089789;28;20421;-80
2022/12/05 00:33:45;;;;;;;27.60;15.80;;;1.40;99.90;;;;;;5089702;28;20016;-80
2022/12/05 00:36:14;;;;;;;32.43;16.57;;;1.40;99.90;;;;;;5090350;28;20028;-80
2022/12/05 00:38:41;;;;;;;32.50;17.03;;;1.50;99.90;;;;;;5090106;28;20047;-80
2022/12/05 00:41:09;;;;;;;30.10;16.70;;;1.50;99.90;;;;;;5090893;28;20024;-80
2022/12/05 00:43:34;;;;;;;26.53;14.57;;;1.40;99.90;;;;;;5090339;28;20768;-80
2022/12/05 00:46:04;;;;;;;28.43;16.10;;;1.50;99.90;;;;;;5089188;28;20024;-80
2022/12/05 00:48:31;;;;;;;25.70;15.33;;;1.50;99.90;;;;;;5089874;28;20028;-80
2022/12/05 00:51:18;;;;;;;27.63;15.47;;;1.60;99.90;;;;;;5089680;28;20457;-80
2022/12/05 00:53:44;;;;;;;25.17;15.20;;;1.60;99.90;;;;;;5088832;28;20073;-80
2022/12/05 00:56:19;;;;;;;28.83;16.27;;;1.60;99.90;;;;;;5089766;28;20396;-80
2022/12/05 00:58:46;;;;;;;28.15;15.73;;;1.60;99.90;;;;;;5088723;28;20065;-80
2022/12/05 01:01:15;;;;;;;31.90;16.20;;;1.60;99.90;;;;;;5090149;28;20097;-80
2022/12/05 01:03:42;;;;;;;25.53;15.00;;;1.50;99.90;;;;;;5089696;28;20571;-80
2022/12/05 01:06:08;;;;;;;27.90;15.50;;;1.60;99.90;;;;;;5113817;27;20388;-80
2022/12/05 01:08:34;;;;;;;24.87;14.87;;;1.50;99.90;;;;;;5090040;28;20020;-80
2022/12/05 01:11:00;;;;;;;27.67;16.63;;;1.50;99.90;;;;;;5089456;28;20028;-80
2022/12/05 01:13:27;;;;;;;29.13;16.07;;;1.50;99.90;;;;;;5089985;28;20119;-80
2022/12/05 01:15:53;;;;;;;29.33;16.43;;;1.50;99.90;;;;;;5090103;28;20028;-80
2022/12/05 01:18:20;;;;;;;27.73;16.90;;;1.50;99.90;;;;;;5092147;28;20064;-80
2022/12/05 01:20:47;;;;;;;26.77;15.40;;;1.50;99.90;;;;;;5091888;28;20039;-79
2022/12/05 01:23:13;;;;;;;25.83;14.70;;;1.50;99.90;;;;;;5089013;28;20022;-80
2022/12/05 01:25:45;;;;;;;26.83;15.10;;;1.50;99.90;;;;;;5089137;28;20025;-80
2022/12/05 01:28:11;;;;;;;26.70;15.37;;;1.50;99.90;;;;;;5087403;28;20022;-80
2022/12/05 01:30:42;;;;;;;28.70;16.10;;;1.50;99.90;;;;;;5087212;28;20016;-80
2022/12/05 01:33:09;;;;;;;29.70;16.47;;;1.50;99.90;;;;;;5089044;28;20077;-80
2022/12/05 01:35:36;;;;;;;30.00;16.20;;;1.40;99.90;;;;;;5086307;28;20027;-80
2022/12/05 01:38:02;;;;;;;29.23;15.63;;;1.50;99.90;;;;;;5087581;28;20105;-80
2022/12/05 01:40:28;;;;;;;30.00;16.70;;;1.40;99.90;;;;;;5089844;28;20027;-80
2022/12/05 01:42:54;;;;;;;30.77;17.70;;;1.50;99.90;;;;;;5087993;28;20605;-80
2022/12/05 01:45:36;;;;;;;29.17;16.27;;;1.40;99.90;;;;;;5088746;28;20052;-80
2022/12/05 01:48:10;;;;;;;29.40;16.43;;;1.40;99.90;;;;;;5087887;28;20031;-80
2022/12/05 01:50:36;;;;;;;28.97;16.37;;;1.40;99.90;;;;;;5089204;28;20481;-80
2022/12/05 01:53:03;;;;;;;29.00;16.03;;;1.40;99.90;;;;;;5086174;28;20035;-80
2022/12/05 01:55:30;;;;;;;29.57;16.00;;;1.40;99.90;;;;;;5089031;28;20016;-80
2022/12/05 01:57:56;;;;;;;30.20;16.80;;;1.40;99.90;;;;;;5088346;28;20039;-80
2022/12/05 02:00:22;;;;;;;31.87;17.33;;;1.40;99.90;;;;;;5088487;28;20032;-80
2022/12/05 02:02:56;;;;;;;28.97;17.50;;;1.50;99.90;;;;;;5087824;28;20392;-80
2022/12/05 02:05:28;;;;;;;26.73;15.93;;;1.40;99.90;;;;;;5089559;28;20020;-80
2022/12/05 02:07:56;;;;;;;31.63;16.50;;;1.40;99.90;;;;;;5088168;28;20070;-80
2022/12/05 02:10:22;;;;;;;30.37;16.17;;;1.40;99.90;;;;;;5088680;28;20035;-79
2022/12/05 02:12:49;;;;;;;29.70;16.70;;;1.40;99.90;;;;;;5088627;28;20365;-80
2022/12/05 02:15:30;;;;;;;31.77;16.83;;;1.40;99.90;;;;;;5089143;28;20032;-80
2022/12/05 02:18:21;;;;;;;30.37;16.53;;;1.50;99.90;;;;;;5088592;28;20071;-80
2022/12/05 02:21:08;;;;;;;30.73;15.40;;;1.50;99.90;;;;;;5087494;28;20024;-80
2022/12/05 02:23:50;;;;;;;31.27;16.07;;;1.50;99.90;;;;;;5087148;28;20073;-79
2022/12/05 02:26:41;;;;;;;28.60;15.97;;;1.40;99.90;;;;;;5087695;28;20028;-79
2022/12/05 02:29:23;;;;;;;31.60;16.40;;;1.50;99.90;;;;;;5087762;28;20400;-80
2022/12/05 02:32:07;;;;;;;33.13;16.33;;;1.50;99.90;;;;;;5088734;28;20016;-80
2022/12/05 02:34:50;;;;;;;34.97;16.87;;;1.50;99.90;;;;;;5087450;28;20020;-80
2022/12/05 02:37:51;;;;;;;35.67;16.57;;;1.40;99.90;;;;;;5086834;28;20032;-80
2022/12/05 02:40:43;;;;;;;36.60;17.83;;;1.40;99.90;;;;;;5087986;28;20020;-80
2022/12/05 02:43:22;;;;;;;32.77;16.90;;;1.40;99.90;;;;;;5087128;28;20102;-80
2022/12/05 02:45:53;;;;;;;34.33;16.97;;;1.40;99.90;;;;;;5087474;28;20051;-80
2022/12/05 02:48:19;;;;;;;37.07;17.60;;;1.40;99.90;;;;;;5087433;28;20043;-79
2022/12/05 02:50:47;;;;;;;35.37;17.90;;;1.40;99.90;;;;;;5088155;28;20376;-80
2022/12/05 02:53:15;;;;;;;33.67;16.47;;;1.40;99.90;;;;;;5087049;28;20170;-80
2022/12/05 02:55:42;;;;;;;32.63;17.37;;;1.40;99.90;;;;;;5084266;28;20693;-80
2022/12/05 02:58:13;;;;;;;33.00;17.93;;;1.40;99.90;;;;;;5085267;28;20103;-80
2022/12/05 03:00:43;;;;;;;34.17;17.77;;;1.40;99.90;;;;;;5086786;28;20134;-80
2022/12/05 03:03:17;;;;;;;32.33;17.70;;;1.40;99.90;;;;;;5086337;28;20032;-80
2022/12/05 03:05:59;;;;;;;30.33;17.63;;;1.40;99.90;;;;;;5088354;28;20020;-80
2022/12/05 03:08:28;;;;;;;32.77;17.80;;;1.40;99.90;;;;;;5087122;28;20031;-79
2022/12/05 03:10:55;;;;;;;34.63;18.80;;;1.40;99.90;;;;;;5083165;28;20031;-80
2022/12/05 03:13:26;;;;;;;31.37;17.63;;;1.50;99.90;;;;;;5086693;28;20027;-80
2022/12/05 03:15:57;;;;;;;31.63;17.97;;;1.50;99.90;;;;;;5090372;28;20742;-80
2022/12/05 03:18:32;;;;;;;31.93;17.13;;;1.60;99.90;;;;;;5088855;28;20465;-80
2022/12/05 03:21:34;;;;;;;29.37;16.30;;;1.50;99.90;;;;;;5091829;28;20028;-80
2022/12/05 03:24:05;;;;;;;28.27;15.37;;;1.60;99.90;;;;;;5088016;28;21129;-80
2022/12/05 03:26:46;;;;;;;28.60;15.63;;;1.50;99.90;;;;;;5088179;28;20477;-80
2022/12/05 03:29:27;;;;;;;28.00;15.77;;;1.50;99.90;;;;;;5089774;28;20059;-79
2022/12/05 03:32:23;;;;;;;27.40;15.97;;;1.50;99.90;;;;;;5087440;28;20032;-80
2022/12/05 03:35:06;;;;;;;29.47;16.00;;;1.50;99.90;;;;;;5091233;28;20069;-80
2022/12/05 03:37:50;;;;;;;28.10;15.23;;;1.50;99.90;;;;;;5090295;28;20032;-80
2022/12/05 03:40:22;;;;;;;29.53;17.13;;;1.50;99.90;;;;;;5088509;28;20020;-80
2022/12/05 03:43:17;;;;;;;28.13;15.63;;;1.50;99.90;;;;;;5089694;28;20103;-80
2022/12/05 03:45:59;;;;;;;28.13;14.70;;;1.50;99.90;;;;;;5087094;28;20031;-76
2022/12/05 03:48:33;;;;;;;28.23;14.60;;;1.50;99.90;;;;;;5093369;28;20034;-79
2022/12/05 03:50:59;;;;;;;31.23;16.43;;;1.50;99.90;;;;;;5089075;28;20054;-80
2022/12/05 03:53:30;;;;;;;31.00;16.83;;;1.50;99.90;;;;;;5091569;28;20024;-80
2022/12/05 03:56:04;;;;;;;27.80;16.93;;;1.50;99.90;;;;;;5091158;28;20103;-80
2022/12/05 03:58:35;;;;;;;26.87;15.17;;;1.50;99.90;;;;;;5089487;28;20691;-80
2022/12/05 04:01:05;;;;;;;29.40;15.63;;;1.50;99.90;;;;;;5090741;28;20130;-80
2022/12/05 04:03:38;;;;;;;26.90;15.33;;;1.60;99.90;;;;;;5091040;28;20026;-80
2022/12/05 04:06:13;;;;;;;27.57;14.77;;;1.60;99.90;;;;;;5090958;28;20412;-79
2022/12/05 04:08:46;;;;;;;28.23;16.05;;;1.60;99.90;;;;;;5089967;28;20016;-79
2022/12/05 04:11:17;;;;;;;31.03;15.77;;;1.60;99.90;;;;;;5088012;28;20031;-80
2022/12/05 04:14:09;;;;;;;27.20;15.07;;;1.60;99.90;;;;;;5089944;28;20020;-80
2022/12/05 04:22:20;;;;;;;30.17;15.13;;;1.70;99.90;;;;;;5089475;28;20115;-80
2022/12/05 04:27:50;;;;;;;26.57;14.97;;;1.70;99.90;;;;;;5089851;28;20065;-80
2022/12/05 04:30:22;;;;;;;26.60;14.23;;;1.80;99.90;;;;;;5088267;28;20365;-80
2022/12/05 04:32:52;;;;;;;30.60;16.10;;;1.80;99.90;;;;;;5090160;28;20032;-79
2022/12/05 04:35:31;;;;;;;31.07;16.43;;;1.70;99.90;;;;;;5090147;28;20090;-80
2022/12/05 04:38:15;;;;;;;34.13;16.97;;;1.70;99.90;;;;;;5089849;28;20024;-80
2022/12/05 04:40:58;;;;;;;31.10;16.60;;;1.80;99.90;;;;;;5089391;28;20157;-80
2022/12/05 04:43:25;;;;;;;31.47;16.03;;;1.80;99.90;;;;;;5088344;28;20410;-80
2022/12/05 04:45:53;;;;;;;33.13;15.97;;;1.80;99.90;;;;;;5089276;28;20032;-80
2022/12/05 04:48:21;;;;;;;31.90;16.83;;;1.80;99.90;;;;;;5088786;28;20017;-80
2022/12/05 04:50:49;;;;;;;38.50;18.53;;;1.80;99.90;;;;;;5089704;28;20050;-80
2022/12/05 04:53:16;;;;;;;37.10;18.43;;;1.80;99.90;;;;;;5086266;28;20034;-80
2022/12/05 04:55:47;;;;;;;30.70;16.60;;;1.80;99.90;;;;;;5088643;28;20051;-80
2022/12/05 04:58:19;;;;;;;33.73;16.57;;;1.80;99.90;;;;;;5089084;28;20027;-80
2022/12/05 05:00:58;;;;;;;35.57;16.90;;;1.80;99.90;;;;;;5088547;28;20098;-80
2022/12/05 05:03:29;;;;;;;36.20;17.80;;;1.90;99.90;;;;;;5088205;28;20020;-80
2022/12/05 05:05:56;;;;;;;36.80;17.23;;;1.90;99.90;;;;;;5087592;28;20031;-80
2022/12/05 05:08:24;;;;;;;35.97;17.50;;;1.90;99.90;;;;;;5088736;28;20484;-80
2022/12/05 05:11:13;;;;;;;36.33;17.33;;;1.90;99.90;;;;;;5088619;28;20082;-80
2022/12/05 05:13:39;;;;;;;36.33;18.57;;;1.90;99.90;;;;;;5087847;28;20465;-80
2022/12/05 05:16:05;;;;;;;36.50;19.07;;;1.90;99.90;;;;;;5088646;28;20081;-79
2022/12/05 05:18:31;;;;;;;36.23;18.80;;;1.90;99.90;;;;;;5087421;28;20093;-80
2022/12/05 05:20:56;;;;;;;39.13;19.27;;;1.90;99.90;;;;;;5087158;28;20032;-80
2022/12/05 05:23:22;;;;;;;37.47;18.57;;;1.90;99.90;;;;;;5088039;28;20095;-80
2022/12/05 05:25:55;;;;;;;39.43;19.33;;;1.90;99.90;;;;;;5088101;28;20578;-80
2022/12/05 05:28:21;;;;;;;37.53;19.00;;;1.90;99.90;;;;;;5087216;28;20169;-79
2022/12/05 05:30:47;;;;;;;39.47;19.73;;;1.90;99.90;;;;;;5087587;28;20092;-80
2022/12/05 05:33:13;;;;;;;37.73;18.67;;;1.90;99.90;;;;;;5087149;28;20032;-80
2022/12/05 05:35:39;;;;;;;38.60;18.40;;;1.90;99.90;;;;;;5085569;28;20058;-80
2022/12/05 05:38:04;;;;;;;37.40;18.53;;;2.00;99.90;;;;;;5086312;28;20028;-80
2022/12/05 05:40:30;;;;;;;34.37;17.70;;;2.00;99.90;;;;;;5086407;28;20042;-80
2022/12/05 05:42:56;;;;;;;31.07;18.43;;;2.00;99.90;;;;;;5087191;28;20131;-80
2022/12/05 05:45:21;;;;;;;36.67;18.63;;;2.00;99.90;;;;;;5087052;28;20132;-80
2022/12/05 05:47:48;;;;;;;36.40;18.10;;;2.00;99.90;;;;;;5085700;28;20035;-80
2022/12/05 05:50:15;;;;;;;34.53;18.23;;;2.00;99.90;;;;;;5087604;28;20022;-80
2022/12/05 05:52:40;;;;;;;37.03;19.87;;;2.00;99.90;;;;;;5087304;28;20032;-80
2022/12/05 05:55:07;;;;;;;34.20;18.17;;;2.00;99.90;;;;;;5086388;28;20035;-80
2022/12/05 05:57:34;;;;;;;37.57;19.87;;;2.10;99.90;;;;;;5086116;28;20042;-81
2022/12/05 06:00:00;;;;;;;36.77;19.20;;;2.10;99.90;;;;;;5086079;28;20031;-81
2022/12/05 06:02:29;;;;;;;37.60;19.87;;;2.10;99.90;;;;;;5084849;28;20035;-81
2022/12/05 06:04:55;;;;;;;35.33;18.87;;;2.10;99.90;;;;;;5087348;28;20020;-80
2022/12/05 06:07:21;;;;;;;35.17;19.57;;;2.10;99.90;;;;;;5086508;28;20031;-80
2022/12/05 06:09:46;;;;;;;37.80;18.33;;;2.10;99.90;;;;;;5086322;28;20024;-80
2022/12/05 06:12:12;;;;;;;35.80;18.97;;;2.10;99.90;;;;;;5091774;28;20024;-76
2022/12/05 06:14:37;;;;;;;35.60;18.87;;;2.20;99.90;;;;;;5090490;28;20032;-77
2022/12/05 06:17:03;;;;;;;34.93;20.03;;;2.10;99.90;;;;;;5089117;28;20053;-77
2022/12/05 06:19:29;;;;;;;31.87;17.43;;;2.20;99.90;;;;;;5088511;28;20143;-76
2022/12/05 06:21:55;;;;;;;36.93;17.67;;;2.20;99.90;;;;;;5086912;28;20482;-76
2022/12/05 06:24:21;;;;;;;32.27;17.57;;;2.20;99.90;;;;;;5087492;28;20502;-76
2022/12/05 06:26:47;;;;;;;33.73;17.27;;;2.20;99.90;;;;;;5086261;28;20055;-77
2022/12/05 06:29:12;;;;;;;32.23;18.17;;;2.20;99.90;;;;;;5086497;28;20024;-77
2022/12/05 06:31:40;;;;;;;34.73;17.80;;;2.20;99.90;;;;;;5085956;28;20099;-77
2022/12/05 06:34:05;;;;;;;32.17;17.37;;;2.20;99.90;;;;;;5085921;28;20027;-76
2022/12/05 06:36:31;;;;;;;29.07;15.70;;;2.20;99.90;;;;;;5085126;28;20043;-76
2022/12/05 06:38:57;;;;;;;33.47;17.93;;;2.20;99.90;;;;;;5086613;28;20382;-77
2022/12/05 06:41:23;;;;;;;31.77;17.07;;;2.20;99.90;;;;;;5113759;27;20039;-76
2022/12/05 06:43:53;;;;;;;29.03;16.53;;;2.20;99.90;;;;;;5087171;28;21393;-76
2022/12/05 06:46:19;;;;;;;31.03;16.43;;;2.20;99.90;;;;;;5087861;28;20028;-76
2022/12/05 06:48:45;;;;;;;28.60;15.80;;;2.20;99.90;;;;;;5087049;28;20020;-76
2022/12/05 06:51:14;;;;;;;31.37;17.03;;;2.20;99.90;;;;;;5086020;28;20107;-76
2022/12/05 06:53:40;;;;;;;31.53;16.67;;;2.30;99.90;;;;;;5085730;28;21473;-76
2022/12/05 06:56:10;;;;;;;28.83;16.33;;;2.30;99.90;;;;;;5087852;28;20023;-76
2022/12/05 06:58:36;;;;;;;30.13;16.80;;;2.30;99.90;;;;;;5086750;28;20020;-77
2022/12/05 07:03:49;;;;;;;26.40;15.37;;;2.30;99.90;;;;;;5081759;28;20035;-76
2022/12/05 07:06:16;;;;;;;28.80;16.87;;;2.30;99.90;;;;;;5083231;28;20020;-76
2022/12/05 07:08:41;;;;;;;32.03;17.53;;;2.40;99.90;;;;;;5083936;28;20059;-77
2022/12/05 07:11:07;;;;;;;30.33;16.90;;;2.30;99.90;;;;;;5082460;28;20166;-76
2022/12/05 07:13:33;;;;;;;34.10;18.63;;;2.40;99.90;;;;;;5082379;28;20543;-77
2022/12/05 07:15:59;;;;;;;29.77;17.77;;;2.40;99.90;;;;;;5082875;28;20089;-76
2022/12/05 07:18:25;;;;;;;31.83;17.63;;;2.40;99.90;;;;;;5086641;28;20043;-77
2022/12/05 07:21:03;;;;;;;31.57;18.27;;;2.40;99.90;;;;;;5086065;28;20092;-77
2022/12/05 07:23:28;;;;;;;31.63;18.23;;;2.40;99.90;;;;;;5085983;28;20024;-77
2022/12/05 07:25:54;;;;;;;30.37;17.30;;;2.40;99.90;;;;;;5085804;28;20083;-77
2022/12/05 07:28:20;;;;;;;32.57;18.70;;;2.50;99.90;;;;;;5085233;28;20389;-77
2022/12/05 07:30:46;;;;;;;31.50;18.07;;;2.50;99.90;;;;;;5084832;28;21315;-77
2022/12/05 07:33:11;;;;;;;32.97;18.77;;;2.50;99.90;;;;;;5083206;28;20024;-76
2022/12/05 07:35:37;;;;;;;32.33;19.00;;;2.50;99.90;;;;;;5084822;28;20035;-77
2022/12/05 07:38:02;;;;;;;30.03;16.73;;;2.50;99.90;;;;;;5085080;28;20548;-77
2022/12/05 07:40:28;;;;;;;30.80;17.63;;;2.50;99.90;;;;;;5086087;28;20036;-77
2022/12/05 07:42:54;;;;;;;30.43;17.70;;;2.60;99.90;;;;;;5085649;28;20373;-77
2022/12/05 07:45:20;;;;;;;30.80;17.10;;;2.60;99.90;;;;;;5085930;28;21346;-77
2022/12/05 07:47:46;;;;;;;27.83;15.80;;;2.60;99.90;;;;;;5086431;28;20088;-77
2022/12/05 07:50:12;;;;;;;29.50;17.03;;;2.60;99.90;;;;;;5084321;28;20466;-77
2022/12/05 07:52:38;;;;;;;31.63;16.57;;;2.60;99.90;;;;;;5084102;28;20032;-77
2022/12/05 07:55:04;;;;;;;26.57;15.47;;;2.60;99.90;;;;;;5085175;28;20113;-77
2022/12/05 07:57:30;;;;;;;27.60;15.53;;;2.60;99.90;;;;;;5086979;28;20024;-77
2022/12/05 07:59:56;;;;;;;29.23;15.90;;;2.70;99.90;;;;;;5090015;28;20028;-77
2022/12/05 08:02:21;;;;;;;27.03;15.73;;;2.70;99.90;;;;;;5090852;28;20020;-77
2022/12/05 08:04:47;;;;;;;28.70;15.60;;;2.70;99.90;;;;;;5090105;28;20020;-77
2022/12/05 08:07:13;;;;;;;23.17;14.73;;;2.70;99.90;;;;;;5089286;28;20035;-77
2022/12/05 08:09:38;;;;;;;29.97;15.60;;;2.70;99.90;;;;;;5089171;28;20028;-77
2022/12/05 08:12:04;;;;;;;26.20;16.07;;;2.80;99.90;;;;;;5092641;28;20028;-77
2022/12/05 08:14:30;;;;;;;28.63;16.00;;;2.80;99.90;;;;;;5093615;28;20035;-77
2022/12/05 08:16:55;;;;;;;27.80;15.90;;;2.80;99.90;;;;;;5091145;28;20768;-77
2022/12/05 08:19:21;;;;;;;26.43;15.57;;;2.80;99.90;;;;;;5088738;28;20039;-77
2022/12/05 08:21:46;;;;;;;29.63;16.00;;;2.80;99.90;;;;;;5089271;28;20021;-77
2022/12/05 08:24:12;;;;;;;28.23;15.60;;;2.90;99.90;;;;;;5089648;28;20016;-77
2022/12/05 08:26:38;;;;;;;30.03;15.50;;;2.90;99.90;;;;;;5088993;28;20072;-77
2022/12/05 08:29:13;;;;;;;28.97;15.83;;;2.90;99.90;;;;;;5089419;28;20028;-77
2022/12/05 08:31:48;;;;;;;26.50;15.82;;;3.00;99.90;;;;;;5089060;28;20028;-77
2022/12/05 08:34:14;;;;;;;28.90;16.60;;;3.10;99.90;;;;;;5089554;28;20047;-77
2022/12/05 08:36:41;;;;;;;27.77;15.47;;;3.10;99.90;;;;;;5088268;28;20108;-77
2022/12/05 08:39:10;;;;;;;28.27;15.60;;;3.20;99.90;;;;;;5088308;28;20357;-78
2022/12/05 08:41:36;;;;;;;31.07;17.37;;;3.30;99.90;;;;;;5087399;28;21355;-78
2022/12/05 08:44:07;;;;;;;32.53;16.97;;;3.30;99.90;;;;;;5088071;28;20020;-77
2022/12/05 08:46:35;;;;;;;29.87;17.67;;;3.40;99.90;;;;;;5086981;28;20032;-78
2022/12/05 08:49:02;;;;;;;29.80;15.70;;;3.40;99.90;;;;;;5088026;28;20031;-78
2022/12/05 08:51:28;;;;;;;29.37;16.70;;;3.50;99.90;;;;;;5088049;28;20028;-77
2022/12/05 08:53:55;;;;;;;28.40;17.07;;;3.50;99.90;;;;;;5087980;28;20030;-78
2022/12/05 08:56:21;;;;;;;29.47;16.63;;;3.60;99.90;;;;;;5086796;28;20028;-78
2022/12/05 08:58:46;;;;;;;28.93;16.17;;;3.50;99.90;;;;;;5085674;28;20136;-78
2022/12/05 09:01:17;;;;;;;27.93;16.20;;;3.60;99.90;;;;;;5085326;28;20039;-77
2022/12/05 09:03:43;;;;;;;28.67;16.63;;;3.60;99.90;;;;;;5085305;28;20150;-78
2022/12/05 09:06:11;;;;;;;27.80;15.97;;;3.60;99.90;;;;;;5084530;28;21558;-78
2022/12/05 09:08:37;;;;;;;23.87;14.80;;;3.70;99.90;;;;;;5084705;28;20063;-78
2022/12/05 09:11:07;;;;;;;27.40;15.13;;;3.70;99.90;;;;;;5082646;28;20099;-78
2022/12/05 09:13:34;;;;;;;29.53;21.87;;;3.70;99.90;;;;;;5084879;28;20111;-78
2022/12/05 09:16:05;;;;;;;25.20;16.73;;;3.80;99.90;;;;;;5084846;28;20017;-78
2022/12/05 09:18:31;;;;;;;28.80;16.97;;;3.80;99.90;;;;;;5084978;28;20101;-78
2022/12/05 09:20:56;;;;;;;30.10;16.73;;;3.80;99.90;;;;;;5084739;28;20027;-78
2022/12/05 09:23:22;;;;;;;26.13;15.77;;;3.80;99.90;;;;;;5085025;28;20074;-78
2022/12/05 09:25:56;;;;;;;25.30;15.53;;;3.80;99.90;;;;;;5084739;28;20032;-78
2022/12/05 09:28:22;;;;;;;23.67;15.02;;;3.80;99.90;;;;;;5084744;28;20024;-78
2022/12/05 09:30:56;;;;;;;26.67;15.50;;;3.80;99.90;;;;;;5084169;28;21007;-78
2022/12/05 09:33:21;;;;;;;26.10;15.27;;;3.80;99.90;;;;;;5083291;28;20139;-78
2022/12/05 09:35:47;;;;;;;25.73;15.37;;;3.80;99.90;;;;;;5084510;28;20026;-78
2022/12/05 09:38:12;;;;;;;22.27;15.23;;;3.70;99.90;;;;;;5084700;28;20028;-78
2022/12/05 09:40:42;;;;;;;25.77;14.90;;;3.70;99.90;;;;;;5082469;28;20071;-78
2022/12/05 09:43:24;;;;;;;30.30;16.17;;;3.70;99.90;;;;;;5083196;28;20155;-77
2022/12/05 09:46:25;;;;;;;26.80;15.97;;;3.70;99.90;;;;;;5084453;28;20027;-77
2022/12/05 09:48:51;;;;;;;27.17;14.87;;;3.70;99.90;;;;;;5082278;28;20048;-78
2022/12/05 09:51:16;;;;;;;25.47;15.70;;;3.70;99.90;;;;;;5084030;28;20017;-78
2022/12/05 09:53:43;;;;;;;25.33;16.30;;;3.70;99.90;;;;;;5083991;28;20024;-78
2022/12/05 09:56:19;;;;;;;26.60;15.73;;;3.70;99.90;;;;;;5084017;28;20036;-78
2022/12/05 09:58:51;;;;;;;30.10;16.50;;;3.80;99.90;;;;;;5084197;28;20092;-78
2022/12/05 10:01:34;;;;;;;25.17;15.50;;;3.80;99.90;;;;;;5084353;28;20051;-78
2022/12/05 10:04:28;;;;;;;28.50;16.50;;;3.80;99.90;;;;;;5084018;28;20028;-78
2022/12/05 10:07:16;;;;;;;29.43;16.23;;;3.80;99.90;;;;;;5082955;28;20020;-78
2022/12/05 10:10:00;;;;;;;26.67;15.87;;;3.80;99.90;;;;;;5084041;28;20028;-79
2022/12/05 10:12:44;;;;;;;24.57;15.90;;;3.80;99.90;;;;;;5083898;28;20035;-78
2022/12/05 10:15:15;;;;;;;27.20;15.27;;;3.80;99.90;;;;;;5084135;28;20384;-78
2022/12/05 10:17:52;;;;;;;26.93;15.63;;;3.80;99.90;;;;;;5083131;28;20885;-78
2022/12/05 10:20:24;;;;;;;28.43;14.83;;;3.80;99.90;;;;;;5084456;28;20039;-78
2022/12/05 10:22:59;;;;;;;28.93;16.47;;;3.90;99.90;;;;;;5083336;28;20028;-78
2022/12/05 10:25:27;;;;;;;19.85;11.85;;;3.90;99.90;;;;;;5084084;28;20016;-78
2022/12/05 10:27:58;;;;;;;29.07;15.03;;;3.90;99.90;;;;;;5084035;28;20396;-78
2022/12/05 10:30:28;;;;;;;25.50;14.93;;;4.00;99.90;;;;;;5083192;28;20350;-78
2022/12/05 10:33:02;;;;;;;24.10;14.67;;;4.00;99.90;;;;;;5083318;28;20024;-78
2022/12/05 10:35:36;;;;;;;26.10;15.77;;;4.00;99.90;;;;;;5085160;28;20068;-78
2022/12/05 10:38:11;;;;;;;25.23;15.30;;;4.10;99.90;;;;;;5083167;28;20056;-78
2022/12/05 10:40:40;;;;;;;29.10;14.90;;;4.10;99.90;;;;;;5084126;28;20034;-78
2022/12/05 10:43:07;;;;;;;24.47;14.73;;;4.10;99.90;;;;;;5084144;28;20762;-78
2022/12/05 10:45:40;;;;;;;25.03;14.90;;;4.10;99.90;;;;;;5084559;28;20024;-78
2022/12/05 10:48:14;;;;;;;32.17;14.93;;;4.10;99.90;;;;;;5083192;28;20047;-78
2022/12/05 10:50:42;;;;;;;26.08;14.82;;;4.20;99.90;;;;;;5082882;28;21465;-78
2022/12/05 10:53:15;;;;;;;26.90;15.70;;;4.20;99.90;;;;;;5083626;28;20067;-78
2022/12/05 10:55:43;;;;;;;23.90;15.27;;;4.30;99.90;;;;;;5083305;28;20741;-78
2022/12/05 10:58:11;;;;;;;23.13;14.73;;;4.30;99.90;;;;;;5083916;28;20028;-78
2022/12/05 11:00:43;;;;;;;28.50;17.03;;;4.30;99.90;;;;;;5084121;28;20032;-78
2022/12/05 11:03:25;;;;;;;21.93;14.23;;;4.40;99.90;;;;;;5084186;28;20028;-78
2022/12/05 11:05:53;;;;;;;24.03;13.97;;;4.40;99.90;;;;;;5083153;28;20030;-78
2022/12/05 11:08:30;;;;;;;21.47;14.87;;;4.50;99.90;;;;;;5083525;28;20515;-78
2022/12/05 11:11:27;;;;;;;21.23;14.63;;;4.60;99.90;;;;;;5083180;28;20099;-78
2022/12/05 11:14:13;;;;;;;23.73;14.03;;;4.60;99.90;;;;;;5084087;28;20038;-78
2022/12/05 11:16:38;;;;;;;;;;;4.60;99.90;;;;;;5083763;28;20430;-78
2022/12/05 11:19:22;;;;;;;20.53;13.37;;;4.70;99.90;;;;;;5083878;28;19979;-78
2022/12/05 11:21:49;;;;;;;21.83;14.27;;;4.80;99.90;;;;;;5085015;28;20056;-78
2022/12/05 11:24:30;;;;;;;21.07;13.40;;;4.80;99.90;;;;;;5084878;28;21455;-78
2022/12/05 11:26:57;;;;;;;19.37;13.10;;;4.80;99.90;;;;;;5081567;28;20031;-78
2022/12/05 11:29:37;;;;;;;19.53;13.50;;;4.80;99.90;;;;;;5082707;28;20024;-78
2022/12/05 11:32:14;;;;;;;19.33;13.63;;;4.80;99.90;;;;;;5083461;28;20047;-78
2022/12/05 11:35:02;;;;;;;20.43;13.40;;;4.90;99.90;;;;;;5085679;28;20032;-78
2022/12/05 11:37:34;;;;;;;18.80;13.20;;;4.80;99.90;;;;;;5083931;28;20431;-78
2022/12/05 11:40:01;;;;;;;18.53;12.77;;;4.80;99.90;;;;;;5086510;28;20034;-78
2022/12/05 11:42:49;;;;;;;19.23;12.67;;;4.80;99.90;;;;;;5086967;28;20036;-78
2022/12/05 11:45:36;;;;;;;18.50;13.07;;;4.80;99.90;;;;;;5087907;28;20034;-78
2022/12/05 11:48:21;;;;;;;18.90;12.30;;;4.90;99.90;;;;;;5086839;28;20028;-78
2022/12/05 11:51:18;;;;;;;19.48;13.20;;;4.80;99.90;;;;;;5085979;28;20821;-78
2022/12/05 11:54:02;;;;;;;17.90;11.73;;;4.90;99.90;;;;;;5088179;28;20016;-78
2022/12/05 11:56:38;;;;;;;19.10;13.10;;;4.90;99.90;;;;;;5087298;28;20081;-77
2022/12/05 11:59:12;;;;;;;;;;;4.80;99.90;;;;;;5088149;28;20031;-78
2022/12/05 12:01:59;;;;;;;18.90;12.33;;;4.90;99.90;;;;;;5086686;28;19912;-78
2022/12/05 12:04:36;;;;;;;17.30;11.57;;;4.80;99.90;;;;;;5087703;28;20031;-78
2022/12/05 12:07:11;;;;;;;16.83;11.23;;;4.80;99.90;;;;;;5088589;28;20107;-77
2022/12/05 12:09:57;;;;;;;18.95;11.70;;;4.70;99.90;;;;;;5088479;28;20077;-78
2022/12/05 12:12:40;;;;;;;16.53;11.27;;;4.70;99.90;;;;;;5086782;28;20043;-77
2022/12/05 12:15:28;;;;;;;18.40;11.80;;;4.60;99.90;;;;;;5090219;28;20043;-78
2022/12/05 12:18:03;;;;;;;18.37;12.10;;;4.60;99.90;;;;;;5090900;28;20125;-78
2022/12/05 12:20:42;;;;;;;17.93;11.93;;;4.60;99.90;;;;;;5090303;28;20649;-78
2022/12/05 12:23:11;;;;;;;18.00;10.47;;;4.60;99.90;;;;;;5090534;28;20166;-78
2022/12/05 12:25:45;;;;;;;18.33;10.90;;;4.60;99.90;;;;;;5091012;28;20626;-78
2022/12/05 12:28:44;;;;;;;15.15;10.40;;;4.60;99.90;;;;;;5090644;28;20008;-78
2022/12/05 12:31:22;;;;;;;13.83;9.80;;;4.70;99.90;;;;;;5091761;28;20023;-78
2022/12/05 12:33:57;;;;;;;13.10;8.83;;;4.60;99.90;;;;;;5089070;28;20028;-78
2022/12/05 12:36:26;;;;;;;13.55;9.73;;;4.70;99.90;;;;;;5089916;28;20052;-78
2022/12/05 12:39:13;;;;;;;14.77;10.03;;;4.70;99.90;;;;;;5090591;28;20043;-78
2022/12/05 12:41:45;;;;;;;14.90;9.87;;;4.60;99.90;;;;;;5084801;28;20365;-77
2022/12/05 12:44:16;;;;;;;14.10;9.83;;;4.60;99.90;;;;;;5085783;28;20605;-78
2022/12/05 12:47:01;;;;;;;12.70;8.00;;;4.60;99.90;;;;;;5085514;28;20460;-78
2022/12/05 12:49:33;;;;;;;12.65;7.95;;;4.60;99.90;;;;;;5086302;28;20017;-78
2022/12/05 12:52:10;;;;;;;14.03;7.80;;;4.70;99.90;;;;;;5086057;28;20103;-77
2022/12/05 12:54:53;;;;;;;11.03;7.20;;;4.70;99.90;;;;;;5085968;28;20019;-78
2022/12/05 12:57:33;;;;;;;10.57;7.30;;;4.70;99.90;;;;;;5085207;28;20020;-77
2022/12/05 13:00:20;;;;;;;10.23;7.37;;;4.70;99.90;;;;;;5085420;28;20366;-77
2022/12/05 13:02:53;;;;;;;11.03;7.07;;;4.70;99.90;;;;;;5085657;28;20020;-78
2022/12/05 13:05:53;;;;;;;9.30;6.87;;;4.80;99.90;;;;;;5084458;28;20020;-77
2022/12/05 13:08:27;;;;;;;9.50;5.77;;;4.80;99.90;;;;;;5084575;28;20024;-77
2022/12/05 13:10:54;;;;;;;9.70;6.45;;;4.80;99.90;;;;;;5084296;28;20108;-78
2022/12/05 13:13:29;;;;;;;11.00;6.20;;;4.80;99.90;;;;;;5084085;28;20028;-78